ESPAESNQ

Guest
Details From ESPA - Lulea Kallax
To ESNQ - Kiruna
Flight Number -
Tags Routegen Generated
Created
Modified
Stats Distance 145 nm / 268 km
Max Altitude 600 ft / 183 m
Waypoints 9
Social Downloads 2
Likes 0
Share VATSIM

Download

Looking for another format? Having issues loading an existing format? Contact us
Advertisement - Login to hide

Notes

Departing runway 31 ESPA. Arriving runway 3 ESNQ.

Route

ESPA +65.61_+021.98 +65.66_+021.92 +66.40_+021.32 +67.59_+020.26 +67.64_+020.20 +67.70_+020.18 +67.75_+020.21 ESNQ

ID Type Via Altitude Latitude Longitude Leg Dist Tot Dist Heading (true) Name
O ESPA APT - 0 ft / 0 m 65.55480˚ 22.09741˚ - 0 nm - -
+65.61_+021.98 LATLON - 600 ft / 183 m 65.60799˚ 21.97871˚ 4 nm 4 nm 317° / 317° -
+65.66_+021.92 LATLON - 600 ft / 183 m 65.66141˚ 21.92464˚ 3 nm 7 nm 337° / 337° -
+66.40_+021.32 LATLON - 600 ft / 183 m 66.39903˚ 21.31756˚ 46 nm 54 nm 342° / 341° -
+67.59_+020.26 LATLON - 600 ft / 183 m 67.58669˚ 20.26253˚ 75 nm 130 nm 341° / 340° -
+67.64_+020.20 LATLON - 600 ft / 183 m 67.63858˚ 20.19515˚ 3 nm 133 nm 334° / 334° -
+67.70_+020.18 LATLON - 600 ft / 183 m 67.69612˚ 20.17835˚ 3 nm 136 nm 354° / 354° -
+67.75_+020.21 LATLON - 600 ft / 183 m 67.75238˚ 20.21437˚ 3 nm 140 nm 14° / 14° -
O ESNQ APT - 0 ft / 0 m 67.81265˚ 20.32031˚ 4 nm 144 nm 34° / 34° -

Altitude Profile

Advertisement - Login to hide

ESPA

Details ICAO ESPA (LLA)
Name Lulea Kallax
Region Sweden
Timezone Europe/Stockholm (UTC+2.0)
Stats Elevation 65 ft / 20 m (AMSL)
Location 65.543757° 22.121979°
Runways 1
Magnetic Variation 9.408° E

METAR

ESPA 220820Z 16008KT CAVOK 17/07 Q1021

Decode

TAF

Not found

Departure Runways

ID Width Length Bearing (true) Bearing (mag) Surface Threshold Offset Overrun Length
14 148 ft / 45 m 10,957 ft / 3,340 m 137.32° 127.91° Asphalt 0 ft / 0 m 0 ft / 0 m
32 148 ft / 45 m 10,957 ft / 3,340 m 317.36° 307.95° Asphalt 0 ft / 0 m 0 ft / 0 m

ESNQ

Details ICAO ESNQ (KRN)
Name Kiruna
Region Sweden
Timezone Europe/Stockholm (UTC+2.0)
Stats Elevation 1,508 ft / 460 m (AMSL)
Location 67.821984° 20.336762°
Runways 1
Magnetic Variation 9.164° E

METAR

ESNQ 220820Z 19015KT CAVOK 14/04 Q1018

Decode

TAF

Not found

Destination Runways

ID Width Length Bearing (true) Bearing (mag) Surface Threshold Offset Overrun Length
03 148 ft / 45 m 8,183 ft / 2,494 m 33.63° 24.47° Asphalt 0 ft / 0 m 200 ft / 61 m
21 148 ft / 45 m 8,183 ft / 2,494 m 213.66° 204.50° Asphalt 0 ft / 0 m 200 ft / 61 m

Approach Navaids

Runway Type Ident Frequency Range Bearing (true) Bearing (mag) Slope Elevation
21 Localiser NQ 110.30 MHz 18 nm / 33 km 213.64° 204.48° - 1,508 ft / 460 m (AMSL)
21 Glidescope NQ 110.30 MHz 10 nm / 19 km 213.64° 204.48° 2.86° 1,508 ft / 460 m (AMSL)

Popular Alternatives